Time;durP1;ratioP1;P1;durP2;ratioP2;P2;SDS_P1;SDS_P2;PMS_P1;PMS_P2;Temp;Humidity;BMP_temperature;BMP_pressure;BME280_temperature;BME280_humidity;BME280_pressure;Samples;Min_cycle;Max_cycle;Signal;HPM_P1;HPM_P2
2023/06/10 00:02:09;;;;;;;12.20;2.10;;;16.80;99.90;;;;;;4995431;28;20045;-67
2023/06/10 00:04:36;;;;;;;6.55;2.53;;;16.70;99.90;;;;;;4986368;28;20164;-67
2023/06/10 00:07:08;;;;;;;20.65;3.00;;;16.60;99.90;;;;;;5000562;28;20092;-67
2023/06/10 00:09:36;;;;;;;4.38;2.40;;;16.60;99.90;;;;;;5007880;28;20111;-67
2023/06/10 00:12:02;;;;;;;4.32;2.90;;;16.50;99.90;;;;;;5008937;28;20104;-67
2023/06/10 00:14:28;;;;;;;5.55;2.60;;;16.50;99.90;;;;;;5007728;28;20087;-67
2023/06/10 00:16:55;;;;;;;3.08;2.60;;;16.40;99.90;;;;;;4996408;28;20065;-68
2023/06/10 00:19:25;;;;;;;3.92;2.42;;;16.40;99.90;;;;;;4991283;28;20067;-67
2023/06/10 00:21:52;;;;;;;2.40;1.70;;;16.50;99.90;;;;;;5007749;28;20053;-65
2023/06/10 00:24:18;;;;;;;3.00;1.92;;;16.50;99.90;;;;;;5001291;28;20545;-65
2023/06/10 00:26:44;;;;;;;6.47;2.00;;;16.50;99.90;;;;;;5005478;28;20153;-64
2023/06/10 00:29:10;;;;;;;3.58;1.75;;;16.40;99.90;;;;;;5005147;28;20037;-64
2023/06/10 00:31:37;;;;;;;4.85;2.30;;;16.40;99.90;;;;;;5002374;28;20044;-64
2023/06/10 00:34:02;;;;;;;5.55;2.28;;;16.40;99.90;;;;;;5002281;28;20037;-64
2023/06/10 00:36:29;;;;;;;4.68;2.10;;;16.40;99.90;;;;;;4991752;28;20038;-64
2023/06/10 00:38:54;;;;;;;4.32;1.92;;;16.40;99.90;;;;;;4992210;28;20057;-64
2023/06/10 00:41:20;;;;;;;1.92;1.83;;;16.40;99.90;;;;;;5001645;28;20509;-64
2023/06/10 00:43:46;;;;;;;1.05;0.98;;;16.40;99.90;;;;;;5004678;28;20132;-64
2023/06/10 00:46:13;;;;;;;3.25;0.82;;;16.40;99.90;;;;;;5000737;28;20053;-64
2023/06/10 00:48:42;;;;;;;0.95;0.80;;;16.40;99.90;;;;;;5009793;28;20057;-64
2023/06/10 00:51:09;;;;;;;1.70;0.90;;;16.30;99.90;;;;;;4994567;28;20072;-64
2023/06/10 00:53:36;;;;;;;0.80;0.80;;;16.20;99.90;;;;;;4999655;28;20091;-64
2023/06/10 00:56:03;;;;;;;4.00;1.20;;;16.20;99.90;;;;;;5013990;28;20442;-64
2023/06/10 00:58:28;;;;;;;2.70;1.52;;;16.20;99.90;;;;;;5010458;28;20730;-64
2023/06/10 01:00:55;;;;;;;2.60;1.45;;;16.20;99.90;;;;;;4987943;28;20042;-64
2023/06/10 01:03:21;;;;;;;2.65;1.60;;;16.20;99.90;;;;;;4995873;28;20030;-64
2023/06/10 01:05:58;;;;;;;2.97;1.88;;;16.20;99.90;;;;;;5001866;28;20046;-64
2023/06/10 01:08:53;;;;;;;5.15;1.75;;;16.20;99.90;;;;;;5010922;28;20066;-64
2023/06/10 01:11:28;;;;;;;3.85;2.30;;;16.10;99.90;;;;;;4987099;28;20081;-64
2023/06/10 01:13:57;;;;;;;4.45;2.00;;;16.10;99.90;;;;;;4989683;28;20033;-68
2023/06/10 01:16:23;;;;;;;1.70;1.60;;;16.10;99.90;;;;;;4998711;28;20046;-67
2023/06/10 01:18:50;;;;;;;1.67;1.58;;;16.10;99.90;;;;;;5003440;28;20046;-64
2023/06/10 01:21:21;;;;;;;4.03;1.45;;;16.10;99.90;;;;;;5010374;28;20046;-65
2023/06/10 01:23:47;;;;;;;3.70;1.10;;;16.10;99.90;;;;;;5008203;28;20037;-64
2023/06/10 01:26:14;;;;;;;1.25;1.10;;;16.10;99.90;;;;;;5013020;28;20095;-65
2023/06/10 01:28:53;;;;;;;1.30;1.20;;;16.00;99.90;;;;;;5011531;28;20048;-64
2023/06/10 01:31:49;;;;;;;2.28;1.50;;;16.00;99.90;;;;;;5005616;28;20026;-65
2023/06/10 01:34:18;;;;;;;3.33;1.45;;;16.00;99.90;;;;;;5006279;28;20042;-64
2023/06/10 01:36:47;;;;;;;5.82;1.50;;;15.90;99.90;;;;;;5003051;28;20063;-67
2023/06/10 01:39:16;;;;;;;3.05;1.70;;;16.00;99.90;;;;;;5006025;28;20037;-67
2023/06/10 01:41:42;;;;;;;7.93;1.83;;;16.00;99.90;;;;;;5012045;28;20021;-67
2023/06/10 01:44:08;;;;;;;1.38;0.73;;;16.10;99.90;;;;;;5009929;28;20049;-67
2023/06/10 01:46:34;;;;;;;1.00;0.60;;;16.20;99.90;;;;;;5001702;28;20059;-67
2023/06/10 01:49:00;;;;;;;1.17;0.93;;;16.10;99.90;;;;;;5006452;28;20048;-67
2023/06/10 01:51:25;;;;;;;0.70;0.70;;;15.90;99.90;;;;;;5010068;28;21573;-67
2023/06/10 01:53:51;;;;;;;2.58;0.98;;;15.90;99.90;;;;;;5015630;28;20034;-67
2023/06/10 01:56:19;;;;;;;1.77;1.20;;;15.80;99.90;;;;;;5002407;28;20112;-67
2023/06/10 01:58:47;;;;;;;4.35;1.50;;;15.80;99.90;;;;;;5009816;28;20044;-67
2023/06/10 02:01:14;;;;;;;1.25;1.10;;;15.90;99.90;;;;;;5008751;28;20485;-67
2023/06/10 02:03:40;;;;;;;4.78;1.10;;;15.90;99.90;;;;;;5013278;28;20033;-67
2023/06/10 02:06:05;;;;;;;2.28;1.33;;;15.90;99.90;;;;;;5012020;28;21653;-67
2023/06/10 02:08:31;;;;;;;3.55;1.58;;;15.90;99.90;;;;;;5018643;28;20136;-67
2023/06/10 02:10:56;;;;;;;2.85;1.30;;;15.80;99.90;;;;;;5002648;28;20048;-67
2023/06/10 02:13:22;;;;;;;5.32;1.63;;;15.90;99.90;;;;;;5016919;28;20116;-67
2023/06/10 02:15:48;;;;;;;6.35;1.50;;;15.80;99.90;;;;;;5008301;28;20021;-67
2023/06/10 02:18:13;;;;;;;7.10;1.55;;;15.80;99.90;;;;;;5014359;28;20054;-67
2023/06/10 02:20:39;;;;;;;5.28;1.40;;;15.80;99.90;;;;;;5010625;28;20103;-67
2023/06/10 02:23:05;;;;;;;4.13;1.08;;;15.90;99.90;;;;;;5007987;28;20056;-67
2023/06/10 02:25:30;;;;;;;3.17;1.30;;;15.90;99.90;;;;;;5009026;28;20025;-67
2023/06/10 02:27:56;;;;;;;2.35;2.00;;;15.90;99.90;;;;;;5006707;28;20056;-67
2023/06/10 02:30:22;;;;;;;6.60;1.73;;;16.00;99.90;;;;;;5010457;28;20051;-67
2023/06/10 02:32:48;;;;;;;5.50;1.40;;;16.00;99.90;;;;;;5007642;28;20042;-67
2023/06/10 02:35:17;;;;;;;3.58;1.40;;;16.00;99.90;;;;;;5012429;28;21194;-67
2023/06/10 02:37:43;;;;;;;3.50;1.30;;;16.10;99.90;;;;;;5007022;28;20119;-67
2023/06/10 02:40:10;;;;;;;3.78;1.23;;;16.00;99.90;;;;;;5004572;28;20069;-67
2023/06/10 02:42:36;;;;;;;2.40;1.40;;;15.90;99.90;;;;;;5009761;28;20037;-68
2023/06/10 02:45:03;;;;;;;3.47;1.50;;;15.90;99.90;;;;;;5012299;28;20482;-67
2023/06/10 02:47:29;;;;;;;6.93;2.22;;;15.90;99.90;;;;;;5004789;28;20139;-68
2023/06/10 02:49:55;;;;;;;4.47;1.40;;;15.90;99.90;;;;;;5004053;28;20144;-68
2023/06/10 02:52:21;;;;;;;4.05;2.08;;;15.90;99.90;;;;;;5010370;28;20030;-68
2023/06/10 02:54:46;;;;;;;1.95;1.77;;;15.80;99.90;;;;;;5000953;28;20116;-68
2023/06/10 02:57:14;;;;;;;5.85;1.63;;;15.80;99.90;;;;;;5012694;28;20240;-68
2023/06/10 02:59:40;;;;;;;4.05;2.08;;;15.90;99.90;;;;;;5000682;28;20537;-68
2023/06/10 03:02:05;;;;;;;2.22;1.40;;;15.90;99.90;;;;;;4998836;28;20041;-68
2023/06/10 03:04:31;;;;;;;5.55;1.67;;;16.00;99.90;;;;;;5012782;28;20049;-68
2023/06/10 03:06:57;;;;;;;2.28;1.10;;;16.00;99.90;;;;;;5005259;28;20042;-68
2023/06/10 03:09:22;;;;;;;2.88;1.17;;;16.00;99.90;;;;;;5004693;28;20087;-68
2023/06/10 03:11:48;;;;;;;4.00;2.28;;;16.00;99.90;;;;;;5009604;28;20582;-67
2023/06/10 03:14:13;;;;;;;2.30;1.30;;;16.00;99.90;;;;;;5014277;28;20064;-68
2023/06/10 03:16:42;;;;;;;3.28;1.50;;;16.10;99.90;;;;;;5003383;28;20049;-68
2023/06/10 03:19:08;;;;;;;5.45;1.73;;;16.10;99.90;;;;;;5005818;28;20611;-67
2023/06/10 03:21:34;;;;;;;5.63;1.55;;;16.10;99.90;;;;;;5007850;28;20378;-68
2023/06/10 03:24:00;;;;;;;2.70;1.60;;;16.20;99.90;;;;;;5012533;28;20042;-68
2023/06/10 03:26:27;;;;;;;6.47;1.80;;;16.20;99.90;;;;;;5009709;28;20052;-65
2023/06/10 03:28:53;;;;;;;1.73;1.60;;;16.20;99.90;;;;;;5008295;28;20033;-65
2023/06/10 03:31:19;;;;;;;3.10;1.50;;;16.20;99.90;;;;;;5016867;28;20405;-65
2023/06/10 03:33:44;;;;;;;5.32;1.40;;;16.30;99.90;;;;;;5013877;28;20065;-65
2023/06/10 03:36:10;;;;;;;3.83;1.30;;;16.40;99.90;;;;;;5006990;28;20818;-65
2023/06/10 03:38:36;;;;;;;5.40;1.80;;;16.40;99.90;;;;;;5011915;28;20041;-65
2023/06/10 03:41:02;;;;;;;1.77;1.35;;;16.50;99.90;;;;;;4991970;28;20597;-65
2023/06/10 03:43:28;;;;;;;5.40;1.55;;;16.50;99.90;;;;;;5008414;28;20050;-67
2023/06/10 03:45:53;;;;;;;4.15;1.55;;;16.50;99.90;;;;;;5011240;28;20037;-65
2023/06/10 03:48:19;;;;;;;2.88;1.38;;;16.60;99.90;;;;;;5011627;28;20572;-65
2023/06/10 03:50:47;;;;;;;3.97;1.55;;;16.60;99.90;;;;;;5005390;28;20065;-65
2023/06/10 03:53:13;;;;;;;3.45;1.67;;;16.60;99.90;;;;;;4999932;28;20037;-65
2023/06/10 03:55:39;;;;;;;2.15;1.40;;;16.60;99.90;;;;;;5003195;28;20061;-65
2023/06/10 03:58:05;;;;;;;2.22;1.50;;;16.70;99.90;;;;;;5010083;28;20116;-65
2023/06/10 04:00:30;;;;;;;2.78;1.70;;;16.70;99.90;;;;;;5009826;28;20038;-65
2023/06/10 04:02:57;;;;;;;5.07;1.40;;;16.80;99.90;;;;;;4988395;28;20171;-65
2023/06/10 04:05:23;;;;;;;5.90;1.70;;;16.80;99.90;;;;;;5014689;28;20033;-65
2023/06/10 04:07:49;;;;;;;2.15;1.40;;;16.80;99.90;;;;;;5011905;28;20060;-66
2023/06/10 04:10:15;;;;;;;1.92;1.40;;;16.80;99.90;;;;;;5007626;28;20052;-65
2023/06/10 04:12:41;;;;;;;5.07;1.98;;;16.90;99.90;;;;;;5012198;28;20041;-65
2023/06/10 04:15:07;;;;;;;3.75;1.80;;;16.90;99.90;;;;;;5005630;28;20034;-65
2023/06/10 04:17:33;;;;;;;2.05;1.85;;;17.00;99.90;;;;;;5007430;28;20173;-65
2023/06/10 04:20:00;;;;;;;6.75;1.98;;;17.10;99.90;;;;;;5006801;28;20029;-64
2023/06/10 04:22:26;;;;;;;4.15;1.80;;;17.10;99.90;;;;;;5010213;28;20037;-65
2023/06/10 04:24:51;;;;;;;1.80;1.70;;;17.20;99.90;;;;;;5011168;28;20033;-65
2023/06/10 04:27:17;;;;;;;2.88;1.75;;;17.30;99.90;;;;;;5013385;28;20119;-65
2023/06/10 04:29:43;;;;;;;2.17;1.98;;;17.30;99.90;;;;;;5005285;28;20037;-65
2023/06/10 04:32:08;;;;;;;6.38;2.20;;;17.40;99.90;;;;;;5001798;28;20048;-65
2023/06/10 04:34:34;;;;;;;5.80;1.90;;;17.40;99.90;;;;;;5010066;28;20054;-65
2023/06/10 04:37:00;;;;;;;2.90;1.60;;;17.50;99.90;;;;;;5006554;28;20081;-65
2023/06/10 04:39:26;;;;;;;2.88;1.42;;;17.50;99.90;;;;;;5007059;28;20517;-65
2023/06/10 04:41:52;;;;;;;4.25;2.00;;;17.60;99.90;;;;;;5006251;28;20033;-65
2023/06/10 04:44:18;;;;;;;4.88;1.92;;;17.60;99.90;;;;;;5010309;28;20708;-65
2023/06/10 04:46:44;;;;;;;3.47;1.50;;;17.70;99.90;;;;;;5004974;28;20192;-65
2023/06/10 04:49:09;;;;;;;1.98;1.48;;;17.70;99.90;;;;;;5005818;28;20516;-65
2023/06/10 04:51:35;;;;;;;1.88;1.48;;;17.90;99.90;;;;;;5006914;28;20229;-65
2023/06/10 04:54:04;;;;;;;3.95;1.83;;;17.90;99.90;;;;;;5007549;28;20033;-65
2023/06/10 04:56:31;;;;;;;4.50;1.95;;;17.90;99.90;;;;;;5009756;28;20078;-65
2023/06/10 04:58:57;;;;;;;3.70;1.58;;;18.00;99.90;;;;;;5002129;28;20053;-65
2023/06/10 05:01:23;;;;;;;3.15;1.58;;;18.10;99.90;;;;;;5013448;28;20030;-65
2023/06/10 05:03:49;;;;;;;1.88;1.60;;;18.20;99.90;;;;;;5007419;28;20032;-65
2023/06/10 05:06:14;;;;;;;2.03;1.35;;;18.20;99.90;;;;;;5014136;28;20521;-65
2023/06/10 05:08:40;;;;;;;2.45;1.73;;;18.20;99.90;;;;;;5015900;28;20485;-65
2023/06/10 05:11:06;;;;;;;3.38;1.65;;;18.20;99.90;;;;;;5008467;28;20053;-65
2023/06/10 05:13:32;;;;;;;4.38;1.33;;;18.20;99.90;;;;;;5006676;28;20029;-65
2023/06/10 05:15:58;;;;;;;2.20;1.45;;;18.30;99.90;;;;;;4996547;28;20080;-65
2023/06/10 05:18:24;;;;;;;2.33;1.50;;;18.30;99.90;;;;;;4993368;28;20037;-65
2023/06/10 05:20:50;;;;;;;1.52;1.35;;;18.30;99.90;;;;;;5004186;28;20084;-65
2023/06/10 05:23:15;;;;;;;2.83;2.00;;;18.30;99.90;;;;;;5007682;28;20323;-65
2023/06/10 05:25:42;;;;;;;5.53;2.17;;;18.30;99.90;;;;;;5004503;28;20035;-81
2023/06/10 05:28:09;;;;;;;4.00;2.00;;;18.30;99.90;;;;;;5012114;28;20041;-64
2023/06/10 05:30:36;;;;;;;3.90;1.92;;;18.40;99.90;;;;;;5012907;28;20032;-64
2023/06/10 05:33:01;;;;;;;3.38;2.85;;;18.50;99.90;;;;;;5013702;28;20029;-65
2023/06/10 05:35:27;;;;;;;3.38;2.53;;;18.50;99.90;;;;;;5010709;28;20065;-65
2023/06/10 05:37:52;;;;;;;3.28;2.80;;;18.60;99.90;;;;;;5008375;28;20121;-64
2023/06/10 05:40:18;;;;;;;3.25;2.70;;;18.60;99.90;;;;;;5008358;28;20344;-65
2023/06/10 05:42:44;;;;;;;5.65;2.67;;;18.60;99.90;;;;;;5004206;28;20048;-64
2023/06/10 05:45:10;;;;;;;4.85;3.00;;;18.60;99.90;;;;;;5006235;28;20041;-65
2023/06/10 05:47:36;;;;;;;3.20;2.90;;;18.70;99.90;;;;;;5000077;28;20077;-65
2023/06/10 05:50:02;;;;;;;3.17;2.88;;;18.70;99.90;;;;;;5007883;28;20161;-65
2023/06/10 05:52:27;;;;;;;3.00;2.42;;;18.70;99.90;;;;;;5017353;28;20068;-64
2023/06/10 05:54:54;;;;;;;4.28;2.42;;;18.80;99.90;;;;;;5013827;28;20149;-64
2023/06/10 05:57:20;;;;;;;3.35;2.90;;;18.80;99.90;;;;;;5008073;28;20026;-65
2023/06/10 05:59:46;;;;;;;5.80;2.75;;;18.80;99.90;;;;;;5012454;28;20077;-64
2023/06/10 06:02:11;;;;;;;2.50;2.30;;;18.80;99.90;;;;;;5003737;28;20192;-65
2023/06/10 06:04:37;;;;;;;3.65;2.70;;;18.90;99.90;;;;;;5017396;28;20033;-65
2023/06/10 06:07:03;;;;;;;3.28;2.85;;;18.90;99.90;;;;;;5013397;28;20074;-64
2023/06/10 06:09:29;;;;;;;3.15;2.90;;;18.90;99.90;;;;;;5013789;28;20054;-68
2023/06/10 06:11:54;;;;;;;4.25;2.97;;;18.90;99.90;;;;;;5014546;28;20064;-68
2023/06/10 06:14:20;;;;;;;4.13;2.92;;;18.90;99.90;;;;;;5005638;28;20111;-68
2023/06/10 06:16:46;;;;;;;5.18;3.00;;;19.00;99.90;;;;;;5008682;28;20048;-68
2023/06/10 06:19:11;;;;;;;3.30;3.00;;;19.00;99.90;;;;;;5012197;28;20037;-68
2023/06/10 06:21:37;;;;;;;3.67;2.88;;;19.00;99.90;;;;;;5010101;28;20044;-70
2023/06/10 06:24:03;;;;;;;3.47;3.13;;;19.00;99.90;;;;;;5010120;28;20036;-69
2023/06/10 06:26:28;;;;;;;3.47;2.63;;;18.90;99.90;;;;;;5010584;28;20068;-69
2023/06/10 06:28:54;;;;;;;6.80;3.13;;;19.00;99.90;;;;;;4990098;28;20080;-68
2023/06/10 06:31:20;;;;;;;6.97;3.28;;;19.10;99.90;;;;;;4994510;28;20045;-68
2023/06/10 06:33:45;;;;;;;8.02;3.00;;;19.20;99.90;;;;;;5001726;28;20034;-68
2023/06/10 06:36:11;;;;;;;3.40;2.80;;;19.20;99.90;;;;;;5008058;28;20099;-68
2023/06/10 06:38:36;;;;;;;4.85;2.83;;;19.30;99.90;;;;;;5013108;28;20630;-69
2023/06/10 06:41:03;;;;;;;3.08;2.80;;;19.30;99.90;;;;;;5011804;28;20056;-68
2023/06/10 06:43:30;;;;;;;3.40;3.10;;;19.40;99.90;;;;;;4997374;28;20049;-69
2023/06/10 06:45:57;;;;;;;3.00;2.70;;;19.50;99.90;;;;;;5003302;28;20029;-68
2023/06/10 06:48:23;;;;;;;5.30;2.80;;;19.50;99.90;;;;;;5004564;28;20037;-67
2023/06/10 06:50:48;;;;;;;2.92;2.63;;;19.50;99.90;;;;;;4999369;28;20030;-67
2023/06/10 06:53:14;;;;;;;5.78;2.92;;;19.50;99.90;;;;;;5007959;28;20049;-68
2023/06/10 06:55:40;;;;;;;3.92;3.25;;;19.50;99.90;;;;;;5001533;28;20042;-67
2023/06/10 06:58:05;;;;;;;4.95;2.97;;;19.50;99.90;;;;;;5003986;28;20139;-67
2023/06/10 07:00:31;;;;;;;6.15;3.17;;;19.50;99.90;;;;;;4996997;28;20579;-67
2023/06/10 07:02:57;;;;;;;3.33;3.03;;;19.60;99.90;;;;;;5007294;28;20141;-68
2023/06/10 07:05:27;;;;;;;4.75;3.15;;;19.60;99.90;;;;;;5004474;28;20030;-68
2023/06/10 07:07:54;;;;;;;3.58;2.85;;;19.70;99.90;;;;;;5007833;28;20165;-63
2023/06/10 07:10:24;;;;;;;3.30;3.00;;;19.80;99.90;;;;;;5010089;28;20025;-63
2023/06/10 07:12:50;;;;;;;3.40;2.78;;;19.80;99.90;;;;;;5009603;28;20076;-73
2023/06/10 07:15:16;;;;;;;3.15;2.60;;;19.80;99.90;;;;;;5014399;28;20505;-73
2023/06/10 07:17:44;;;;;;;3.25;2.92;;;19.90;99.90;;;;;;5016833;28;20148;-74
2023/06/10 07:20:10;;;;;;;4.28;2.90;;;19.90;99.90;;;;;;5011154;28;20034;-74
2023/06/10 07:22:36;;;;;;;2.90;2.70;;;19.90;99.90;;;;;;5007229;28;20550;-75
2023/06/10 07:25:01;;;;;;;3.10;2.80;;;20.00;99.90;;;;;;5005272;28;20099;-66
2023/06/10 07:27:27;;;;;;;3.00;2.80;;;20.10;99.90;;;;;;5008948;28;20033;-66
2023/06/10 07:29:53;;;;;;;3.17;2.53;;;20.10;99.90;;;;;;5015124;28;20049;-66
2023/06/10 07:32:20;;;;;;;3.60;2.70;;;20.20;99.90;;;;;;5008944;28;20123;-65
2023/06/10 07:34:46;;;;;;;4.35;2.60;;;20.20;99.90;;;;;;5001510;28;20049;-65
2023/06/10 07:37:11;;;;;;;3.10;2.67;;;20.30;99.90;;;;;;5005198;28;20065;-65
2023/06/10 07:39:37;;;;;;;2.95;2.55;;;20.20;99.90;;;;;;5007448;28;20029;-65
2023/06/10 07:42:03;;;;;;;3.28;2.90;;;20.20;99.90;;;;;;5006241;28;20390;-66
2023/06/10 07:44:28;;;;;;;4.45;2.30;;;20.10;99.90;;;;;;5008843;28;20041;-74
2023/06/10 07:46:54;;;;;;;6.18;3.00;;;20.20;99.90;;;;;;5013789;28;20120;-74
2023/06/10 07:49:20;;;;;;;4.47;2.72;;;20.20;99.90;;;;;;5010404;28;20045;-74
2023/06/10 07:51:45;;;;;;;3.20;2.90;;;20.20;99.90;;;;;;5007481;28;20104;-73
2023/06/10 07:54:12;;;;;;;4.22;2.85;;;20.20;99.90;;;;;;5006114;28;20048;-73
2023/06/10 07:56:38;;;;;;;2.67;2.45;;;20.20;99.90;;;;;;5010340;28;20041;-73
2023/06/10 07:59:03;;;;;;;2.17;2.08;;;20.30;99.90;;;;;;5008419;28;20038;-76
2023/06/10 08:01:30;;;;;;;2.58;2.38;;;20.40;99.90;;;;;;5010240;28;22134;-66
2023/06/10 08:03:55;;;;;;;2.40;2.20;;;20.50;99.90;;;;;;4994129;28;23005;-74
2023/06/10 08:06:21;;;;;;;2.70;2.50;;;20.50;99.90;;;;;;5000337;28;20741;-73
2023/06/10 08:08:47;;;;;;;2.95;2.50;;;20.40;99.90;;;;;;5008485;28;20057;-74
2023/06/10 08:11:13;;;;;;;3.47;2.38;;;20.50;99.90;;;;;;5000660;28;20034;-72
2023/06/10 08:13:39;;;;;;;2.30;2.10;;;20.50;99.90;;;;;;5004217;28;20045;-73
2023/06/10 08:16:05;;;;;;;2.47;2.10;;;20.70;99.90;;;;;;5008853;28;20116;-73
2023/06/10 08:18:31;;;;;;;3.92;2.33;;;20.70;99.90;;;;;;5004856;28;20041;-74
2023/06/10 08:20:57;;;;;;;5.68;2.40;;;20.80;99.90;;;;;;5004401;28;20080;-75
2023/06/10 08:23:23;;;;;;;2.17;1.95;;;20.90;99.90;;;;;;4997393;28;21658;-64
2023/06/10 08:25:48;;;;;;;1.95;1.85;;;21.00;99.90;;;;;;4992245;28;20054;-66
2023/06/10 08:28:14;;;;;;;1.98;1.88;;;21.10;99.90;;;;;;4998826;28;20186;-65
2023/06/10 08:30:40;;;;;;;3.15;1.88;;;21.10;99.90;;;;;;4988837;28;20041;-66
2023/06/10 08:33:05;;;;;;;2.05;1.95;;;21.10;99.90;;;;;;5002798;28;20083;-66
2023/06/10 08:35:31;;;;;;;3.25;2.55;;;21.20;99.90;;;;;;4999725;28;20621;-67
2023/06/10 08:37:57;;;;;;;2.33;1.92;;;21.30;99.90;;;;;;4994462;28;20670;-65
2023/06/10 08:40:23;;;;;;;3.00;2.00;;;21.40;99.90;;;;;;4994397;28;20584;-65
2023/06/10 08:43:10;;;;;;;2.10;1.90;;;21.50;99.90;;;;;;4993682;28;20046;-67
2023/06/10 08:45:36;;;;;;;2.17;2.08;;;21.50;99.90;;;;;;4997959;28;20172;-67
2023/06/10 08:48:08;;;;;;;4.53;1.90;;;21.60;99.90;;;;;;4996266;28;20056;-76
2023/06/10 08:50:35;;;;;;;;;;;21.70;99.90;;;;;;5006906;28;20079;-75
2023/06/10 08:53:01;;;;;;;2.65;2.10;;;21.80;99.90;;;;;;5004821;28;19964;-87
2023/06/10 08:55:31;;;;;;;5.25;2.28;;;21.80;99.90;;;;;;5001573;28;20036;-75
2023/06/10 08:58:01;;;;;;;3.28;1.77;;;21.90;99.90;;;;;;4993917;28;20391;-75
2023/06/10 09:00:28;;;;;;;5.35;1.92;;;21.90;99.90;;;;;;4992887;28;20334;-79
2023/06/10 09:02:55;;;;;;;3.15;1.90;;;22.00;99.90;;;;;;5001442;28;20239;-73
2023/06/10 09:05:21;;;;;;;15.00;4.45;;;22.20;99.90;;;;;;4997276;28;20124;-82
2023/06/10 09:07:48;;;;;;;2.92;1.85;;;22.20;99.90;;;;;;4988734;28;20130;-69
2023/06/10 09:10:14;;;;;;;1.98;1.77;;;22.20;99.90;;;;;;5000493;28;20151;-67
2023/06/10 09:12:40;;;;;;;3.65;2.00;;;22.20;99.90;;;;;;4982262;28;20050;-68
2023/06/10 09:15:09;;;;;;;2.25;2.05;;;22.30;99.90;;;;;;4996295;28;20793;-66
2023/06/10 09:17:38;;;;;;;2.13;1.92;;;22.30;99.90;;;;;;5001117;28;20041;-70
2023/06/10 09:20:04;;;;;;;2.55;2.35;;;22.30;99.90;;;;;;4998995;28;21512;-69
2023/06/10 09:22:30;;;;;;;6.03;1.80;;;22.30;99.90;;;;;;5009108;28;20037;-68
2023/06/10 09:25:10;;;;;;;4.53;2.00;;;22.20;99.90;;;;;;4999879;28;20320;-68
2023/06/10 09:27:50;;;;;;;2.42;1.88;;;22.30;99.90;;;;;;5009607;28;20049;-69
2023/06/10 09:30:27;;;;;;;1.95;1.80;;;22.40;99.90;;;;;;5003814;28;20682;-69
2023/06/10 09:32:58;;;;;;;1.88;1.77;;;22.40;99.90;;;;;;4996273;28;20049;-68
2023/06/10 09:35:25;;;;;;;2.40;2.00;;;22.40;99.90;;;;;;4996217;28;20049;-65
2023/06/10 09:37:56;;;;;;;7.35;2.10;;;22.40;99.90;;;;;;5005473;28;20030;-65
2023/06/10 09:40:22;;;;;;;4.45;1.95;;;22.40;99.90;;;;;;4978836;28;20506;-67
2023/06/10 09:42:55;;;;;;;2.38;1.80;;;22.40;99.90;;;;;;5004779;28;20080;-65
2023/06/10 09:45:21;;;;;;;2.92;1.80;;;22.40;99.90;;;;;;4998485;28;20049;-66
2023/06/10 09:47:56;;;;;;;2.42;2.15;;;22.40;99.90;;;;;;4993599;28;20050;-66
2023/06/10 09:50:21;;;;;;;24.38;7.90;;;22.50;99.90;;;;;;4976874;28;20050;-68
2023/06/10 09:52:50;;;;;;;27.65;8.35;;;22.50;99.90;;;;;;4996895;28;20593;-77
2023/06/10 09:55:17;;;;;;;16.40;5.55;;;22.60;99.90;;;;;;4992054;28;20363;-75
2023/06/10 09:57:45;;;;;;;5.80;3.75;;;22.50;99.90;;;;;;4998417;28;20046;-72
2023/06/10 10:00:12;;;;;;;2.30;2.20;;;22.40;99.90;;;;;;4999206;28;20042;-74
2023/06/10 10:02:49;;;;;;;2.58;2.08;;;22.40;99.90;;;;;;4988635;28;20044;-71
2023/06/10 10:05:16;;;;;;;3.58;3.05;;;22.40;99.90;;;;;;4994956;28;20040;-75
2023/06/10 10:07:43;;;;;;;4.50;3.30;;;22.30;99.90;;;;;;5007655;28;20639;-73
2023/06/10 10:10:10;;;;;;;10.77;5.82;;;22.30;99.90;;;;;;4989900;28;20037;-64
2023/06/10 10:12:38;;;;;;;10.45;3.80;;;22.20;99.90;;;;;;4996253;28;20057;-70
2023/06/10 10:15:09;;;;;;;40.60;13.60;;;22.30;99.90;;;;;;4977456;28;20038;-74
2023/06/10 10:17:48;;;;;;;50.17;35.90;;;22.20;99.90;;;;;;5008326;28;20030;-72
2023/06/10 10:20:18;;;;;;;4.43;4.03;;;22.20;99.90;;;;;;4999413;28;20616;-71
2023/06/10 10:22:47;;;;;;;2.60;2.40;;;22.30;99.90;;;;;;4974183;28;20042;-71
2023/06/10 10:25:27;;;;;;;4.63;2.95;;;22.20;99.90;;;;;;4981843;28;20554;-73
2023/06/10 10:27:59;;;;;;;2.50;1.92;;;22.30;99.90;;;;;;5006647;28;20108;-72
2023/06/10 10:30:25;;;;;;;;;;;22.20;99.90;;;;;;5004688;28;20033;-72
2023/06/10 10:33:04;;;;;;;32.47;13.90;;;22.10;99.90;;;;;;4998952;28;20002;-73
2023/06/10 10:35:33;;;;;;;7.28;4.80;;;22.10;99.90;;;;;;4997367;28;20026;-73
2023/06/10 10:37:59;;;;;;;5.22;4.03;;;22.20;99.90;;;;;;5006248;28;20030;-72
2023/06/10 10:40:29;;;;;;;9.02;6.90;;;22.30;99.90;;;;;;4964103;28;20938;-71
2023/06/10 10:42:58;;;;;;;10.85;7.43;;;22.40;99.90;;;;;;4985712;28;20509;-71
2023/06/10 10:45:23;;;;;;;26.95;13.27;;;22.50;99.90;;;;;;4983696;28;20041;-71
2023/06/10 10:47:53;;;;;;;7.90;4.63;;;22.60;99.90;;;;;;4998642;28;20143;-72
2023/06/10 10:50:20;;;;;;;6.15;3.47;;;22.60;99.90;;;;;;4989754;28;20037;-72
2023/06/10 10:52:58;;;;;;;5.07;2.70;;;22.70;99.90;;;;;;5008858;28;20052;-70
2023/06/10 10:55:25;;;;;;;2.67;2.47;;;22.70;99.90;;;;;;5002987;28;20378;-71
2023/06/10 10:58:04;;;;;;;2.60;2.40;;;22.80;99.90;;;;;;4999923;28;20040;-70
2023/06/10 11:00:31;;;;;;;4.35;2.70;;;22.70;99.90;;;;;;4999828;28;20046;-72
2023/06/10 11:03:08;;;;;;;3.97;2.90;;;22.70;99.90;;;;;;4993830;28;20041;-70
2023/06/10 11:05:44;;;;;;;2.97;2.72;;;22.70;99.90;;;;;;5011158;28;20553;-62
2023/06/10 11:08:10;;;;;;;2.45;2.25;;;22.70;99.90;;;;;;5002173;28;20886;-63
2023/06/10 11:10:40;;;;;;;2.50;2.30;;;22.70;99.90;;;;;;5009036;28;20496;-63
2023/06/10 11:13:20;;;;;;;2.75;2.53;;;22.70;99.90;;;;;;5005497;28;20049;-63
2023/06/10 11:15:47;;;;;;;3.63;2.40;;;22.90;99.90;;;;;;5002319;28;20029;-64
2023/06/10 11:18:21;;;;;;;3.17;2.38;;;22.90;99.90;;;;;;4998250;28;20046;-64
2023/06/10 11:20:50;;;;;;;2.55;2.35;;;22.90;99.90;;;;;;5006084;28;20045;-65
2023/06/10 11:23:38;;;;;;;2.53;2.35;;;23.10;99.90;;;;;;5014551;28;20053;-65
2023/06/10 11:26:20;;;;;;;3.13;2.38;;;23.20;99.90;;;;;;4998606;28;20041;-65
2023/06/10 11:28:46;;;;;;;2.88;2.67;;;23.30;99.90;;;;;;5013956;28;20132;-65
2023/06/10 11:31:42;;;;;;;2.90;2.70;;;23.30;99.90;;;;;;5001186;28;20035;-64
2023/06/10 11:34:08;;;;;;;2.40;2.20;;;23.30;99.90;;;;;;4990343;28;20060;-65
2023/06/10 11:36:42;;;;;;;2.60;2.40;;;23.30;99.90;;;;;;5008865;28;20509;-65
2023/06/10 11:39:08;;;;;;;2.83;2.63;;;23.30;99.90;;;;;;4998654;28;20041;-66
2023/06/10 11:41:34;;;;;;;2.50;2.30;;;23.30;99.90;;;;;;4997119;28;20068;-66
2023/06/10 11:44:11;;;;;;;2.60;2.40;;;23.30;99.90;;;;;;4999537;28;20030;-66
2023/06/10 11:46:37;;;;;;;3.28;2.53;;;23.40;99.90;;;;;;5004621;28;20041;-67
2023/06/10 11:49:05;;;;;;;2.80;2.60;;;23.50;99.90;;;;;;5003417;28;20045;-66
2023/06/10 11:51:37;;;;;;;2.67;2.47;;;23.50;99.90;;;;;;5002090;28;20075;-67
2023/06/10 11:54:03;;;;;;;2.88;2.60;;;23.70;99.90;;;;;;5004798;28;20036;-68
2023/06/10 11:56:30;;;;;;;2.28;2.17;;;23.80;99.90;;;;;;4997292;28;20510;-67
2023/06/10 11:58:57;;;;;;;2.55;2.35;;;23.90;99.90;;;;;;4985650;28;20045;-65
2023/06/10 12:01:25;;;;;;;2.10;2.00;;;24.00;99.90;;;;;;4998185;28;20045;-65
2023/06/10 12:03:58;;;;;;;2.38;2.17;;;24.10;99.90;;;;;;4995326;28;20045;-65
2023/06/10 12:06:24;;;;;;;4.53;2.42;;;24.20;99.90;;;;;;4978095;28;20596;-66
2023/06/10 12:08:49;;;;;;;3.30;2.33;;;24.30;99.90;;;;;;4990239;28;20053;-66
2023/06/10 12:11:15;;;;;;;2.35;2.15;;;24.40;99.90;;;;;;4988353;28;20026;-67
2023/06/10 12:13:49;;;;;;;2.17;1.90;;;24.40;99.90;;;;;;4991410;28;20116;-66
2023/06/10 12:16:16;;;;;;;3.15;2.20;;;24.40;99.90;;;;;;4990581;28;20065;-66
2023/06/10 12:18:44;;;;;;;4.00;1.88;;;24.40;99.90;;;;;;4995179;28;20041;-66
2023/06/10 12:21:21;;;;;;;1.55;1.45;;;24.50;99.90;;;;;;4984573;28;20049;-66
2023/06/10 12:24:05;;;;;;;4.03;1.42;;;24.50;99.90;;;;;;4989357;28;20229;-66
2023/06/10 12:26:47;;;;;;;1.77;1.67;;;24.60;99.90;;;;;;4992080;28;20057;-67
2023/06/10 12:29:24;;;;;;;2.95;1.77;;;24.70;99.90;;;;;;4974489;28;20932;-67
2023/06/10 12:32:08;;;;;;;3.60;2.08;;;24.60;99.90;;;;;;4992408;28;20144;-67
2023/06/10 12:34:41;;;;;;;12.00;2.35;;;24.60;99.90;;;;;;4986410;28;20037;-67
2023/06/10 12:37:13;;;;;;;1.65;1.55;;;24.50;99.90;;;;;;4998427;28;20053;-67
2023/06/10 12:39:39;;;;;;;;;;;24.50;99.90;;;;;;4993136;28;20050;-67
2023/06/10 12:42:08;;;;;;;1.88;1.50;;;24.60;99.90;;;;;;4995230;28;19952;-67
2023/06/10 12:44:38;;;;;;;2.55;1.67;;;24.60;99.90;;;;;;4998291;28;20037;-68
2023/06/10 12:47:12;;;;;;;1.50;1.40;;;24.50;99.90;;;;;;4996542;28;20061;-67
2023/06/10 12:49:39;;;;;;;1.73;1.60;;;24.40;99.90;;;;;;4999339;28;20056;-67
2023/06/10 12:52:05;;;;;;;6.15;1.50;;;24.60;99.90;;;;;;4994585;28;20041;-67